Time;durP1;ratioP1;P1;durP2;ratioP2;P2;SDS_P1;SDS_P2;PMS_P1;PMS_P2;Temp;Humidity;BMP_temperature;BMP_pressure;BME280_temperature;BME280_humidity;BME280_pressure;Samples;Min_cycle;Max_cycle;Signal;HPM_P1;HPM_P2
2022/03/12 00:01:52;;;;;;;11.53;8.37;;;;;;;8.83;34.53;98955.75;7001059;28;20277;-81
2022/03/12 00:05:14;;;;;;;13.23;8.47;;;;;;;8.98;33.80;98941.22;7001891;28;20316;-81
2022/03/12 00:08:41;;;;;;;17.00;8.67;;;;;;;9.07;33.37;98945.47;7003305;28;20610;-80
2022/03/12 00:12:08;;;;;;;12.30;9.43;;;;;;;8.89;33.80;98936.16;7009182;28;20236;-81
2022/03/12 00:15:35;;;;;;;10.50;8.13;;;;;;;8.81;34.02;98935.47;7007958;28;20305;-79
2022/03/12 00:19:05;;;;;;;13.77;8.80;;;;;;;8.31;35.24;98955.13;7007983;28;20550;-80
2022/03/12 00:22:28;;;;;;;14.83;9.03;;;;;;;8.48;34.62;98950.41;7010399;28;20260;-79
2022/03/12 00:25:50;;;;;;;13.33;8.50;;;;;;;8.98;33.55;98956.56;7006198;28;20236;-82
2022/03/12 00:29:15;;;;;;;13.13;8.27;;;;;;;8.92;33.58;98956.47;7006430;28;20268;-79
2022/03/12 00:32:41;;;;;;;10.17;8.57;;;;;;;8.97;32.62;98954.88;7009950;28;20232;-80
2022/03/12 00:36:03;;;;;;;9.70;8.07;;;;;;;9.00;33.54;98959.88;7016613;28;20297;-80
2022/03/12 00:39:24;;;;;;;14.07;9.40;;;;;;;8.93;33.82;98963.50;7038158;28;20206;-79
2022/03/12 00:42:47;;;;;;;11.83;8.03;;;;;;;8.90;33.49;98959.34;7034447;28;20205;-80
2022/03/12 00:46:10;;;;;;;14.40;8.53;;;;;;;8.92;32.45;98970.75;7033654;28;20228;-80
2022/03/12 00:49:32;;;;;;;11.00;7.63;;;;;;;8.56;30.31;98918.88;7034873;28;20212;-80
2022/03/12 00:52:53;;;;;;;10.43;7.03;;;;;;;8.86;30.66;98933.88;7042881;28;20585;-80
2022/03/12 00:56:15;;;;;;;8.30;7.20;;;;;;;9.32;32.03;98980.88;7041185;28;20206;-80
2022/03/12 00:59:37;;;;;;;15.50;8.50;;;;;;;9.18;32.94;98973.72;7041675;28;20546;-80
2022/03/12 01:03:53;;;;;;;14.60;8.33;;;;;;;9.03;33.55;98991.78;7038898;28;20225;-79
2022/03/12 01:07:17;;;;;;;10.30;8.23;;;;;;;8.92;31.93;98962.69;7018245;28;20225;-79
2022/03/12 01:10:40;;;;;;;11.07;7.87;;;;;;;9.05;32.06;98989.72;7040388;28;20213;-79
2022/03/12 01:14:06;;;;;;;9.97;7.80;;;;;;;9.28;30.88;98996.56;7038242;28;20237;-79
2022/03/12 01:17:28;;;;;;;12.00;8.53;;;;;;;9.31;31.46;98990.81;7042774;28;20343;-79
2022/03/12 01:20:56;;;;;;;11.20;7.87;;;;;;;9.13;30.89;98949.22;7038842;28;20213;-79
2022/03/12 01:27:56;;;;;;;12.67;7.97;;;;;;;9.36;30.43;98968.69;7020721;28;20232;-79
2022/03/12 01:31:18;;;;;;;11.00;7.43;;;;;;;9.46;29.87;98955.75;7027714;28;20581;-79
2022/03/12 01:34:47;;;;;;;13.53;7.80;;;;;;;9.44;29.71;98947.88;7034338;28;20250;-80
2022/03/12 01:38:09;;;;;;;8.43;7.17;;;;;;;9.44;29.76;98955.09;7039588;28;20208;-80
2022/03/12 01:41:33;;;;;;;9.83;7.17;;;;;;;8.97;30.29;98971.03;7039810;28;20205;-80
2022/03/12 01:44:58;;;;;;;10.03;7.40;;;;;;;8.92;30.43;98960.00;7039292;28;20219;-80
2022/03/12 01:48:19;;;;;;;8.37;7.47;;;;;;;8.73;30.61;98962.47;7033347;28;20592;-78
2022/03/12 01:51:43;;;;;;;8.40;7.10;;;;;;;8.71;30.94;98953.78;7040343;28;20204;-80
2022/03/12 01:55:21;;;;;;;8.77;7.53;;;;;;;9.38;29.95;98958.56;7043270;28;20724;-80
2022/03/12 01:58:51;;;;;;;12.57;7.50;;;;;;;9.10;29.83;98971.16;7037608;28;20197;-80
2022/03/12 02:02:23;;;;;;;19.03;7.90;;;;;;;8.53;30.79;98940.72;7037713;28;20602;-79
2022/03/12 02:05:46;;;;;;;13.70;7.37;;;;;;;8.92;30.37;98948.41;7029954;28;20236;-79
2022/03/12 02:09:07;;;;;;;8.17;7.20;;;;;;;9.20;30.33;98956.34;7029991;28;20312;-79
2022/03/12 02:12:29;;;;;;;12.63;7.23;;;;;;;8.82;30.67;98972.91;7028777;28;20695;-79
2022/03/12 02:15:52;;;;;;;10.17;7.57;;;;;;;8.23;31.27;98965.97;7030341;28;20208;-78
2022/03/12 02:19:14;;;;;;;10.10;7.87;;;;;;;8.74;31.15;98977.56;7029504;28;20209;-79
2022/03/12 02:22:42;;;;;;;12.17;8.23;;;;;;;8.60;30.48;98944.31;7035612;28;20204;-80
2022/03/12 02:26:10;;;;;;;10.27;7.13;;;;;;;8.06;31.47;98991.31;7033509;28;20212;-79
2022/03/12 02:29:40;;;;;;;11.23;7.37;;;;;;;8.70;30.59;98957.47;7029735;28;20209;-79
2022/03/12 02:33:02;;;;;;;11.63;8.03;;;;;;;8.84;30.42;98970.84;7001124;28;20221;-79
2022/03/12 02:36:33;;;;;;;9.63;7.90;;;;;;;9.11;29.79;98962.06;7000375;28;20206;-79
2022/03/12 02:39:56;;;;;;;9.93;7.13;;;;;;;8.92;30.06;98968.06;7000325;28;20186;-79
2022/03/12 02:43:28;;;;;;;10.97;7.67;;;;;;;8.61;30.47;98980.09;6998611;28;20217;-79
2022/03/12 02:47:11;;;;;;;7.70;6.90;;;;;;;7.41;32.30;98949.22;7006102;28;20694;-82
2022/03/12 02:50:33;;;;;;;10.20;7.70;;;;;;;8.78;30.59;98974.31;7003522;28;20282;-82
2022/03/12 02:53:56;;;;;;;7.73;6.67;;;;;;;8.90;30.83;98942.41;6999414;28;20225;-81
2022/03/12 02:57:18;;;;;;;9.17;7.20;;;;;;;8.67;30.50;98955.16;7026952;28;20204;-80
2022/03/12 03:00:41;;;;;;;14.23;7.67;;;;;;;8.87;30.06;98973.19;7036087;28;20205;-82
2022/03/12 03:04:03;;;;;;;13.53;7.97;;;;;;;9.20;29.71;98994.00;7033836;28;20212;-81
2022/03/12 03:07:24;;;;;;;11.83;7.97;;;;;;;9.08;30.13;99003.63;7033000;28;20692;-81
2022/03/12 03:10:48;;;;;;;9.10;7.03;;;;;;;8.79;30.50;98983.22;7031646;28;20685;-81
2022/03/12 03:14:12;;;;;;;9.80;7.13;;;;;;;8.52;31.07;99014.31;7031844;28;20236;-82
2022/03/12 03:17:35;;;;;;;11.17;7.70;;;;;;;8.53;31.01;98980.19;7034886;28;20201;-81
2022/03/12 03:20:59;;;;;;;17.87;7.93;;;;;;;8.56;30.55;99006.72;7035078;28;20201;-82
2022/03/12 03:24:21;;;;;;;10.20;7.73;;;;;;;8.42;30.38;98960.03;7032623;28;20225;-82
2022/03/12 03:27:42;;;;;;;8.27;7.33;;;;;;;8.98;30.37;98994.19;7029910;28;20229;-81
2022/03/12 03:31:06;;;;;;;10.73;7.33;;;;;;;9.36;29.54;99007.22;7029683;28;20213;-82
2022/03/12 03:34:31;;;;;;;11.87;7.83;;;;;;;9.27;29.81;99011.03;7030408;28;20221;-81
2022/03/12 03:37:52;;;;;;;11.10;6.77;;;;;;;9.42;29.78;99013.69;7031151;28;20286;-82
2022/03/12 03:41:15;;;;;;;11.00;7.73;;;;;;;8.98;30.14;99007.66;7029915;28;20213;-81
2022/03/12 03:44:36;;;;;;;10.20;7.03;;;;;;;8.56;30.68;98975.31;7029311;28;20217;-81
2022/03/12 03:47:58;;;;;;;10.97;7.37;;;;;;;9.22;30.18;99023.41;7033844;28;20344;-81
2022/03/12 03:51:23;;;;;;;9.53;6.90;;;;;;;9.36;29.95;99030.59;7032002;28;20304;-82
2022/03/12 03:54:45;;;;;;;8.10;7.13;;;;;;;9.29;29.44;99035.94;7026085;28;20225;-82
2022/03/12 03:58:06;;;;;;;11.73;7.63;;;;;;;9.45;29.44;99032.13;7026847;28;20201;-82
2022/03/12 04:01:28;;;;;;;9.40;7.30;;;;;;;9.26;29.68;99038.13;7031142;28;20217;-81
2022/03/12 04:04:53;;;;;;;10.77;7.37;;;;;;;9.44;29.35;99020.53;7032215;28;20323;-81
2022/03/12 04:08:16;;;;;;;8.77;6.50;;;;;;;9.26;29.59;99001.31;7033400;28;20241;-81
2022/03/12 04:11:38;;;;;;;10.10;6.60;;;;;;;9.39;29.37;99028.34;7032228;28;20281;-81
2022/03/12 04:15:00;;;;;;;11.10;7.60;;;;;;;9.39;29.29;99025.66;7035474;28;20232;-82
2022/03/12 04:18:22;;;;;;;12.83;7.20;;;;;;;9.05;30.04;98995.91;7035858;28;20569;-81
2022/03/12 04:21:43;;;;;;;7.93;6.87;;;;;;;9.52;29.29;99023.06;7035247;28;20279;-81
2022/03/12 04:25:11;;;;;;;10.30;7.40;;;;;;;9.48;29.59;99020.97;7031657;28;20233;-81
2022/03/12 04:28:33;;;;;;;14.73;7.97;;;;;;;9.31;30.20;99036.56;7035761;28;20689;-81
2022/03/12 04:31:55;;;;;;;8.07;7.17;;;;;;;9.05;29.84;99013.91;7034292;28;20213;-82
2022/03/12 04:35:18;;;;;;;12.80;8.20;;;;;;;8.61;30.55;99033.84;7031690;28;20225;-82
2022/03/12 04:38:39;;;;;;;10.07;7.70;;;;;;;8.88;30.12;99019.69;7037321;28;20201;-81
2022/03/12 04:42:03;;;;;;;8.90;6.90;;;;;;;8.86;30.13;99006.47;7031096;28;20295;-82
2022/03/12 04:45:25;;;;;;;10.13;7.30;;;;;;;8.58;29.80;98970.56;7035747;28;20220;-81
2022/03/12 04:48:47;;;;;;;8.90;7.03;;;;;;;9.08;29.88;99033.19;7040273;28;20235;-80
2022/03/12 04:52:11;;;;;;;9.63;7.43;;;;;;;8.98;29.91;99039.06;7042161;28;20213;-81
2022/03/12 04:55:36;;;;;;;10.07;7.53;;;;;;;8.70;29.98;99038.09;7044194;28;20221;-82
2022/03/12 04:58:59;;;;;;;9.87;7.43;;;;;;;8.74;30.27;99028.66;7042369;28;20209;-82
2022/03/12 05:02:22;;;;;;;9.80;7.20;;;;;;;8.70;30.45;99036.25;7039497;28;20193;-81
2022/03/12 05:05:45;;;;;;;9.80;7.63;;;;;;;8.34;30.41;99039.88;7041925;28;20213;-80
2022/03/12 05:09:07;;;;;;;12.87;7.70;;;;;;;7.73;32.01;99053.56;7041436;28;20726;-80
2022/03/12 05:12:29;;;;;;;8.60;7.43;;;;;;;8.26;31.58;99067.66;7041338;28;20208;-80
2022/03/12 05:17:03;;;;;;;9.23;7.23;;;;;;;8.35;31.01;99066.56;7039702;28;20213;-80
2022/03/12 05:20:37;;;;;;;8.00;6.87;;;;;;;8.55;31.57;99038.09;6929278;28;20238;-80
2022/03/12 05:24:05;;;;;;;9.17;7.47;;;;;;;8.88;30.65;99071.63;6951651;28;20221;-81
2022/03/12 05:27:32;;;;;;;8.60;7.07;;;;;;;8.87;30.66;99069.97;7011113;28;20220;-81
2022/03/12 05:30:58;;;;;;;11.50;6.97;;;;;;;8.64;30.53;99074.63;7007485;28;20351;-81
2022/03/12 05:34:23;;;;;;;7.97;7.17;;;;;;;8.82;30.52;99048.19;7009495;28;20229;-81
2022/03/12 05:37:47;;;;;;;10.10;7.00;;;;;;;8.96;31.42;99093.03;7009376;28;20367;-81
2022/03/12 05:41:11;;;;;;;10.30;7.23;;;;;;;8.83;31.42;99078.59;7008789;28;20209;-81
2022/03/12 05:44:34;;;;;;;8.80;7.57;;;;;;;8.93;30.64;99096.94;7010905;28;20229;-80
2022/03/12 05:47:58;;;;;;;9.37;7.30;;;;;;;8.62;32.89;99092.81;7014038;28;20228;-80
2022/03/12 05:51:19;;;;;;;11.77;7.67;;;;;;;8.81;33.36;99121.81;7015670;28;20212;-81
2022/03/12 05:54:47;;;;;;;15.50;7.53;;;;;;;8.73;34.02;99121.88;7014104;28;20225;-81
2022/03/12 05:58:15;;;;;;;14.87;8.43;;;;;;;8.71;33.91;99099.72;7013232;28;20216;-81
2022/03/12 06:01:37;;;;;;;10.40;8.17;;;;;;;8.31;34.50;99069.81;7012857;28;20192;-81
2022/03/12 06:04:59;;;;;;;11.43;7.57;;;;;;;8.53;35.22;99123.47;7009946;28;20218;-79
2022/03/12 06:08:21;;;;;;;10.07;7.30;;;;;;;8.64;35.40;99139.13;7010932;28;20222;-80
2022/03/12 06:11:45;;;;;;;10.77;7.90;;;;;;;7.97;36.77;99120.47;7000919;28;20592;-84
2022/03/12 06:15:08;;;;;;;8.90;7.83;;;;;;;8.15;36.76;99129.03;6999024;28;20373;-83
2022/03/12 06:18:33;;;;;;;9.03;7.57;;;;;;;8.33;36.80;99122.34;7012695;28;20276;-82
2022/03/12 06:21:56;;;;;;;13.27;8.53;;;;;;;8.04;36.72;99103.44;7006187;28;20205;-83
2022/03/12 06:25:18;;;;;;;12.37;8.73;;;;;;;7.83;37.77;99100.59;6999666;28;20310;-83
2022/03/12 06:28:41;;;;;;;11.23;8.03;;;;;;;7.66;38.41;99096.38;7001455;28;20855;-82
2022/03/12 06:32:04;;;;;;;10.53;8.23;;;;;;;7.81;38.51;99124.13;7029412;28;20551;-83
2022/03/12 06:35:27;;;;;;;14.87;8.10;;;;;;;7.98;38.22;99112.22;7027511;28;20334;-83
2022/03/12 06:38:49;;;;;;;9.60;7.93;;;;;;;7.91;37.84;99102.38;7034488;28;20209;-83
2022/03/12 06:42:10;;;;;;;10.43;8.23;;;;;;;7.21;38.71;99058.84;7031874;28;20247;-83
2022/03/12 06:45:35;;;;;;;12.53;8.50;;;;;;;8.09;37.39;99141.34;7040667;28;20213;-84
2022/03/12 06:48:56;;;;;;;12.20;8.57;;;;;;;8.41;36.40;99153.63;7041519;28;20243;-84
2022/03/12 06:52:18;;;;;;;9.90;7.93;;;;;;;8.65;34.88;99057.47;7031499;28;20345;-85
2022/03/12 06:55:41;;;;;;;11.83;8.33;;;;;;;9.44;33.92;99105.81;7014288;28;20760;-80
2022/03/12 06:59:03;;;;;;;12.07;8.27;;;;;;;9.02;35.47;99138.00;7005988;28;20294;-79
2022/03/12 07:02:35;;;;;;;13.20;8.03;;;;;;;9.75;33.91;99146.75;7010193;28;20210;-81
2022/03/12 07:05:57;;;;;;;10.20;8.10;;;;;;;10.30;32.23;99136.94;7012204;28;20211;-82
2022/03/12 07:09:19;;;;;;;12.70;8.77;;;;;;;10.55;32.68;99142.69;7016346;28;20217;-82
2022/03/12 07:12:43;;;;;;;12.60;8.20;;;;;;;10.32;33.00;99142.09;7024592;28;20209;-84
2022/03/12 07:16:31;;;;;;;10.33;8.07;;;;;;;10.33;32.99;99141.09;7025607;28;20189;-82
2022/03/12 07:19:57;;;;;;;9.17;7.53;;;;;;;11.17;30.94;99140.78;7023746;28;20276;-81
2022/03/12 07:23:21;;;;;;;20.60;9.57;;;;;;;11.17;29.36;99138.09;7025278;28;20233;-80
2022/03/12 07:26:43;;;;;;;9.27;7.30;;;;;;;12.11;27.43;99132.56;7002457;28;20643;-80
2022/03/12 07:30:06;;;;;;;10.67;8.10;;;;;;;12.06;27.54;99130.50;6994923;28;20250;-77
2022/03/12 07:33:28;;;;;;;11.97;8.73;;;;;;;11.96;27.67;99134.63;7013652;28;20375;-79
2022/03/12 07:36:51;;;;;;;10.93;8.90;;;;;;;12.25;27.25;99140.47;7020114;28;20207;-78
2022/03/12 07:40:14;;;;;;;10.37;7.97;;;;;;;12.52;26.74;99149.41;7024873;28;20213;-77
2022/03/12 07:43:36;;;;;;;13.37;8.37;;;;;;;12.52;26.66;99147.53;7009328;28;20227;-77
2022/03/12 07:46:58;;;;;;;10.67;7.27;;;;;;;12.47;26.78;99132.97;7010251;28;20248;-77
2022/03/12 07:50:20;;;;;;;10.73;8.00;;;;;;;12.82;26.10;99147.91;7024114;28;20210;-78
2022/03/12 07:53:43;;;;;;;11.33;8.50;;;;;;;12.56;26.13;99153.38;7023083;28;20234;-78
2022/03/12 07:57:05;;;;;;;12.03;8.23;;;;;;;11.39;27.01;99145.06;7026932;28;20289;-77
2022/03/12 08:00:28;;;;;;;12.33;8.17;;;;;;;10.45;29.48;99159.22;7026795;28;20315;-77
2022/03/12 08:03:50;;;;;;;10.80;8.40;;;;;;;10.59;29.54;99169.09;7028121;28;20303;-77
2022/03/12 08:07:12;;;;;;;13.07;7.83;;;;;;;10.26;29.60;99164.44;7029282;28;20627;-77
2022/03/12 08:11:24;;;;;;;11.13;8.37;;;;;;;11.11;28.40;99161.31;7032265;28;20213;-78
2022/03/12 08:14:17;;;;;;;9.77;7.57;;;;;;;11.81;27.80;99153.72;7029561;28;20263;-79
2022/03/12 08:17:38;;;;;;;11.30;8.47;;;;;;;11.84;28.07;99155.16;7015412;28;20206;-77
2022/03/12 08:21:00;;;;;;;10.47;8.33;;;;;;;11.66;28.37;99144.13;7022790;28;20254;-79
2022/03/12 08:24:22;;;;;;;10.23;8.63;;;;;;;13.20;25.85;99141.59;7016813;28;20711;-79
2022/03/12 08:27:45;;;;;;;9.10;8.00;;;;;;;13.14;25.68;99130.78;7019135;28;20318;-79
2022/03/12 08:31:08;;;;;;;13.57;9.80;;;;;;;13.25;26.40;99159.91;7009088;28;20212;-79
2022/03/12 08:34:29;;;;;;;12.50;8.00;;;;;;;13.83;25.50;99153.41;7005808;28;20312;-79
2022/03/12 08:37:51;;;;;;;12.73;9.43;;;;;;;14.08;25.47;99155.13;7008103;28;20225;-79
2022/03/12 08:41:13;;;;;;;11.67;9.30;;;;;;;14.96;24.65;99145.84;7020409;28;20206;-79
2022/03/12 08:44:38;;;;;;;11.47;8.93;;;;;;;13.93;25.51;99146.44;7032365;28;20229;-80
2022/03/12 08:48:00;;;;;;;11.73;9.73;;;;;;;14.78;26.38;99143.09;7028365;28;20241;-78
2022/03/12 08:51:21;;;;;;;11.43;8.47;;;;;;;14.39;25.58;99127.19;7031088;28;20729;-78
2022/03/12 08:54:43;;;;;;;19.20;9.03;;;;;;;14.63;25.84;99138.00;7030489;28;20229;-78
2022/03/12 08:58:05;;;;;;;14.33;9.00;;;;;;;14.79;25.43;99121.16;7021076;28;20196;-79
2022/03/12 09:01:28;;;;;;;10.80;9.57;;;;;;;15.94;24.25;99123.72;7030544;28;20236;-80
2022/03/12 09:04:51;;;;;;;13.00;9.53;;;;;;;16.01;23.95;99129.91;7026199;28;20225;-79
2022/03/12 09:08:15;;;;;;;13.70;9.77;;;;;;;15.72;23.92;99134.28;7017471;28;20582;-79
2022/03/12 09:11:37;;;;;;;12.30;9.53;;;;;;;15.37;24.61;99135.16;7005530;28;20212;-78
2022/03/12 09:14:59;;;;;;;12.57;9.70;;;;;;;14.44;24.96;99130.03;7013834;28;20362;-78
2022/03/12 09:18:23;;;;;;;11.77;8.73;;;;;;;13.31;27.29;99140.09;7000521;28;20212;-78
2022/03/12 09:21:44;;;;;;;15.17;10.43;;;;;;;13.70;25.97;99142.63;7003597;28;20209;-79
2022/03/12 09:25:08;;;;;;;15.33;10.33;;;;;;;13.86;26.28;99117.75;7002228;28;20226;-83
2022/03/12 09:28:30;;;;;;;14.07;10.23;;;;;;;14.18;25.64;99135.66;7003277;28;20227;-79
2022/03/12 09:31:51;;;;;;;14.97;9.90;;;;;;;14.42;25.56;99135.72;7015889;28;20353;-80
2022/03/12 09:35:16;;;;;;;14.67;10.30;;;;;;;15.22;25.04;99131.97;7029853;28;20320;-79
2022/03/12 09:38:38;;;;;;;13.80;11.20;;;;;;;16.71;23.30;99131.72;7028598;28;20203;-79
2022/03/12 09:42:00;;;;;;;16.20;10.50;;;;;;;16.42;23.13;99135.34;7028274;28;20233;-78
2022/03/12 09:45:22;;;;;;;14.67;10.47;;;;;;;17.39;22.91;99113.69;7028446;28;20236;-79
2022/03/12 09:48:44;;;;;;;21.07;14.30;;;;;;;15.18;25.01;99136.19;7026093;28;20221;-76
2022/03/12 09:52:09;;;;;;;16.73;11.40;;;;;;;15.50;25.65;99133.13;7027930;28;20747;-77
2022/03/12 09:55:31;;;;;;;17.40;11.87;;;;;;;16.80;24.46;99122.97;7030328;28;20229;-79
2022/03/12 09:58:52;;;;;;;19.03;13.60;;;;;;;16.27;24.90;99124.88;7015446;28;20670;-78
2022/03/12 10:02:14;;;;;;;17.37;11.47;;;;;;;16.33;23.15;99104.91;7010244;28;20244;-79
2022/03/12 10:05:35;;;;;;;14.97;11.53;;;;;;;15.87;24.14;99114.84;7006188;28;20251;-79
2022/03/12 10:08:58;;;;;;;19.27;11.43;;;;;;;15.75;24.26;99103.91;7008403;28;20260;-79
2022/03/12 10:12:20;;;;;;;18.03;11.40;;;;;;;16.83;23.58;99102.59;7001098;28;20681;-79
2022/03/12 10:15:42;;;;;;;19.47;13.67;;;;;;;16.58;25.71;99093.84;6998455;28;20227;-78
2022/03/12 10:19:04;;;;;;;14.40;11.67;;;;;;;17.71;24.36;99088.44;7005480;28;20197;-79
2022/03/12 10:22:25;;;;;;;14.47;11.47;;;;;;;18.40;22.58;99089.97;7001545;28;20577;-85
2022/03/12 10:25:48;;;;;;;13.30;9.87;;;;;;;18.46;24.56;99086.25;7019174;28;20309;-79
2022/03/12 10:29:10;;;;;;;12.67;10.47;;;;;;;18.07;23.64;99068.06;7026698;28;20260;-79
2022/03/12 10:32:34;;;;;;;13.77;10.80;;;;;;;18.46;22.48;99084.31;7025743;28;20212;-79
2022/03/12 10:35:56;;;;;;;12.73;10.77;;;;;;;16.81;23.93;99074.78;7026963;28;20215;-78
2022/03/12 10:39:18;;;;;;;12.87;10.67;;;;;;;18.17;23.07;99071.00;7026448;28;20203;-78
2022/03/12 10:42:46;;;;;;;16.30;11.50;;;;;;;16.89;25.45;99045.28;7025365;28;20204;-78
2022/03/12 10:46:08;;;;;;;13.67;11.50;;;;;;;16.40;25.09;99072.19;7025910;28;20204;-78
2022/03/12 10:49:31;;;;;;;13.77;10.87;;;;;;;17.66;24.60;99061.06;7026350;28;20730;-78
2022/03/12 10:52:54;;;;;;;15.33;10.50;;;;;;;17.73;24.85;99064.47;7026139;28;20235;-78
2022/03/12 10:56:16;;;;;;;14.03;9.93;;;;;;;17.06;25.09;99064.44;7012183;28;20666;-77
2022/03/12 10:59:39;;;;;;;13.07;10.37;;;;;;;16.44;26.31;99073.34;7013858;28;20191;-78
2022/03/12 11:03:01;;;;;;;13.03;9.97;;;;;;;17.33;25.83;99058.19;7024223;28;20381;-78
2022/03/12 11:06:24;;;;;;;15.77;10.60;;;;;;;17.91;25.08;99052.50;7025386;28;20729;-78
2022/03/12 11:09:46;;;;;;;14.93;10.50;;;;;;;18.18;23.87;99053.53;7024301;28;20229;-79
2022/03/12 11:13:08;;;;;;;12.27;10.00;;;;;;;19.44;23.30;99049.69;7023779;28;20274;-79
2022/03/12 11:16:33;;;;;;;12.40;11.03;;;;;;;19.18;23.81;99050.44;7024984;28;20212;-79
2022/03/12 11:19:57;;;;;;;12.97;10.63;;;;;;;18.98;23.49;99043.88;7024841;28;20215;-79
2022/03/12 11:23:27;;;;;;;13.03;10.40;;;;;;;17.62;25.66;99048.16;7023874;28;20687;-78
2022/03/12 11:26:50;;;;;;;13.33;10.77;;;;;;;18.80;24.47;99031.31;7024435;28;20191;-78
2022/03/12 11:30:13;;;;;;;12.67;10.37;;;;;;;18.37;25.09;99044.88;7023985;28;20322;-79
2022/03/12 11:33:36;;;;;;;14.83;12.17;;;;;;;18.55;24.63;99028.22;7021607;28;20290;-78
2022/03/12 11:37:09;;;;;;;14.73;9.87;;;;;;;18.80;25.49;99014.13;7005357;28;20206;-79
2022/03/12 11:40:41;;;;;;;12.50;10.50;;;;;;;18.34;25.16;99020.78;7000448;28;20213;-81
2022/03/12 11:44:08;;;;;;;14.90;10.60;;;;;;;19.49;24.33;99016.09;6995967;28;20223;-78
2022/03/12 11:47:33;;;;;;;14.23;10.43;;;;;;;19.67;24.42;98997.41;6996086;28;20183;-79
2022/03/12 11:50:56;;;;;;;14.13;10.37;;;;;;;19.39;25.46;98992.19;6996063;28;20755;-78
2022/03/12 11:54:18;;;;;;;12.00;10.70;;;;;;;19.82;24.05;98991.25;6995023;28;20305;-78
2022/03/12 11:57:39;;;;;;;12.17;9.90;;;;;;;19.06;25.56;98977.84;6997148;28;20211;-80
2022/03/12 12:01:01;;;;;;;10.70;9.30;;;;;;;20.14;24.49;98981.16;6997194;28;20672;-79
2022/03/12 12:04:22;;;;;;;15.33;10.80;;;;;;;17.99;27.33;98992.09;6994855;28;20695;-79
2022/03/12 12:07:47;;;;;;;12.67;10.90;;;;;;;19.70;25.15;98974.19;6999920;28;20274;-79
2022/03/12 12:11:11;;;;;;;12.83;9.97;;;;;;;18.73;26.53;98980.66;7013210;28;20211;-79
2022/03/12 12:14:35;;;;;;;12.47;9.83;;;;;;;18.66;26.77;98975.41;7023553;28;20721;-79
2022/03/12 12:17:57;;;;;;;11.43;9.40;;;;;;;18.83;26.29;98978.09;7019815;28;20222;-79
2022/03/12 12:21:19;;;;;;;11.23;9.23;;;;;;;20.30;24.60;98970.06;7019135;28;20658;-79
2022/03/12 12:24:43;;;;;;;11.73;9.23;;;;;;;20.38;24.87;98961.34;7022864;28;20247;-79
2022/03/12 12:28:14;;;;;;;13.60;9.03;;;;;;;20.78;24.57;98958.84;7024158;28;20235;-79
2022/03/12 12:31:46;;;;;;;10.10;8.77;;;;;;;19.49;26.70;98950.44;7008995;28;20231;-79
2022/03/12 12:35:13;;;;;;;10.47;8.53;;;;;;;19.35;26.62;98943.75;6995953;28;20635;-79
2022/03/12 12:38:35;;;;;;;11.37;8.30;;;;;;;19.79;26.33;98932.41;6997673;28;20236;-80
2022/03/12 12:42:01;;;;;;;10.33;8.57;;;;;;;20.11;26.27;98932.41;6999711;28;20269;-79
2022/03/12 12:45:24;;;;;;;9.53;8.27;;;;;;;19.94;26.25;98934.44;6999747;28;20221;-79
2022/03/12 12:48:48;;;;;;;10.30;8.23;;;;;;;18.57;28.05;98932.41;7008563;28;20272;-80
2022/03/12 12:52:10;;;;;;;9.33;7.93;;;;;;;19.13;27.21;98924.63;7028806;28;20195;-78
2022/03/12 12:55:33;;;;;;;9.93;8.33;;;;;;;19.90;26.28;98923.19;7029010;28;20233;-80
2022/03/12 12:59:10;;;;;;;10.03;8.03;;;;;;;20.89;25.61;98908.50;7028581;28;20656;-79
2022/03/12 13:02:42;;;;;;;8.87;7.53;;;;;;;20.85;25.66;98893.66;7028141;28;20189;-78
2022/03/12 13:06:03;;;;;;;9.07;7.73;;;;;;;20.07;26.19;98917.59;7029532;28;20194;-79
2022/03/12 13:09:55;;;;;;;18.97;11.03;;;;;;;18.66;28.61;98912.59;7028394;28;20369;-79
2022/03/12 13:13:18;;;;;;;9.90;8.20;;;;;;;18.95;28.01;98900.38;7027551;28;20229;-80
2022/03/12 13:16:55;;;;;;;8.67;7.77;;;;;;;19.93;26.54;98884.34;7028199;28;20669;-79
2022/03/12 13:20:30;;;;;;;9.23;7.73;;;;;;;20.42;25.95;98877.56;7027726;28;20191;-79
2022/03/12 13:23:52;;;;;;;8.43;7.53;;;;;;;20.01;26.54;98869.34;7027878;28;20362;-79
2022/03/12 13:27:20;;;;;;;10.07;7.50;;;;;;;18.90;28.08;98872.16;7028031;28;20243;-79
2022/03/12 13:30:42;;;;;;;9.07;7.63;;;;;;;19.28;27.26;98858.38;7028393;28;20245;-79
2022/03/12 13:34:09;;;;;;;10.77;7.07;;;;;;;20.58;25.79;98865.56;7027650;28;20217;-80
2022/03/12 13:37:31;;;;;;;13.83;7.73;;;;;;;21.42;24.63;98869.69;7027997;28;20195;-79
2022/03/12 13:40:53;;;;;;;12.23;7.37;;;;;;;21.01;24.66;98869.88;7027682;28;20205;-79
2022/03/12 13:44:15;;;;;;;10.00;7.87;;;;;;;20.53;25.03;98856.53;7025470;28;20226;-80
2022/03/12 13:47:37;;;;;;;9.93;7.67;;;;;;;20.65;25.66;98860.69;7008320;28;20196;-80
2022/03/12 13:51:00;;;;;;;9.47;8.27;;;;;;;21.11;25.09;98859.75;6999380;28;20308;-79
2022/03/12 13:54:25;;;;;;;47.13;10.00;;;;;;;20.07;25.48;98871.06;6999180;28;20316;-79
2022/03/12 13:57:48;;;;;;;13.60;8.27;;;;;;;20.40;25.98;98857.03;6999755;28;20551;-79
2022/03/12 14:01:10;;;;;;;10.43;7.73;;;;;;;19.74;26.57;98839.34;6999543;28;20536;-79
2022/03/12 14:04:32;;;;;;;8.53;7.50;;;;;;;19.64;26.18;98847.47;6999331;28;20240;-79
2022/03/12 14:07:56;;;;;;;9.90;7.87;;;;;;;20.16;26.46;98847.59;6999790;28;20211;-80
2022/03/12 14:11:30;;;;;;;11.70;8.93;;;;;;;19.42;26.60;98849.50;7001817;28;20222;-79
2022/03/12 14:14:52;;;;;;;11.03;7.93;;;;;;;19.76;27.19;98855.50;7007238;28;20224;-79
2022/03/12 14:18:23;;;;;;;11.13;8.87;;;;;;;19.17;26.93;98849.22;7027323;28;20208;-79
2022/03/12 14:21:45;;;;;;;12.00;9.13;;;;;;;18.69;27.45;98842.97;7028448;28;20200;-80
2022/03/12 14:25:09;;;;;;;11.33;8.10;;;;;;;19.08;27.75;98834.38;7026157;28;20228;-79
2022/03/12 14:28:31;;;;;;;12.30;8.97;;;;;;;19.87;26.75;98816.19;7017470;28;20286;-79
2022/03/12 14:31:56;;;;;;;9.43;8.43;;;;;;;19.90;26.14;98837.53;6999740;28;20275;-79
2022/03/12 14:35:18;;;;;;;11.30;9.37;;;;;;;20.23;25.68;98839.97;6999164;28;20341;-80
2022/03/12 14:38:39;;;;;;;11.33;9.27;;;;;;;20.08;26.15;98843.44;6999495;28;20574;-79
2022/03/12 14:42:04;;;;;;;10.87;8.93;;;;;;;19.64;26.13;98839.25;6997016;28;20573;-78
2022/03/12 14:45:26;;;;;;;13.37;9.43;;;;;;;19.93;25.69;98826.06;6996868;28;20229;-78
2022/03/12 14:48:48;;;;;;;10.10;8.93;;;;;;;19.93;26.27;98826.06;6996752;28;20224;-77
2022/03/12 14:52:17;;;;;;;12.27;9.77;;;;;;;18.73;27.06;98822.25;6999803;28;20275;-78
2022/03/12 14:55:44;;;;;;;12.30;9.23;;;;;;;19.55;26.45;98813.50;7004255;28;20232;-78
2022/03/12 14:59:10;;;;;;;10.83;9.40;;;;;;;19.33;25.84;98807.28;7013293;28;20193;-79
2022/03/12 15:02:38;;;;;;;11.47;8.93;;;;;;;19.11;26.17;98827.56;6998138;28;20188;-79
2022/03/12 15:06:00;;;;;;;11.60;9.17;;;;;;;19.55;26.03;98835.38;6997737;28;20246;-77
2022/03/12 15:09:23;;;;;;;12.57;8.73;;;;;;;19.59;25.44;98822.00;6996082;28;20832;-78
2022/03/12 15:12:51;;;;;;;11.33;9.47;;;;;;;19.47;25.42;98827.66;6995493;28;20683;-77
2022/03/12 15:16:22;;;;;;;12.73;9.73;;;;;;;19.49;25.65;98808.22;7007840;28;20191;-77
2022/03/12 15:19:44;;;;;;;11.13;9.10;;;;;;;19.72;25.39;98816.06;6996944;28;20203;-77
2022/03/12 15:23:08;;;;;;;12.83;9.50;;;;;;;18.64;27.11;98804.69;6995298;28;20229;-77
2022/03/12 15:26:29;;;;;;;12.80;9.10;;;;;;;19.49;26.32;98808.22;6996036;28;20202;-77
2022/03/12 15:29:57;;;;;;;12.60;9.27;;;;;;;19.81;26.05;98781.66;6995303;28;20594;-78
2022/03/12 15:33:27;;;;;;;14.77;9.70;;;;;;;19.90;25.40;98805.53;6995139;28;20287;-78
2022/03/12 15:36:49;;;;;;;13.10;10.07;;;;;;;19.36;25.41;98800.47;6996500;28;20300;-77
2022/03/12 15:40:15;;;;;;;13.77;10.30;;;;;;;19.49;25.20;98805.50;6997624;28;20261;-78
2022/03/12 15:43:37;;;;;;;12.77;9.77;;;;;;;19.25;25.70;98796.00;7022062;28;20229;-78
2022/03/12 15:46:58;;;;;;;13.00;9.93;;;;;;;19.90;25.11;98800.06;7023524;28;20188;-78
2022/03/12 15:50:21;;;;;;;12.20;9.60;;;;;;;19.10;26.11;98798.59;7023231;28;20238;-78
2022/03/12 15:53:43;;;;;;;13.73;10.03;;;;;;;18.55;26.63;98807.03;7023007;28;20251;-77
2022/03/12 15:57:05;;;;;;;15.67;10.83;;;;;;;18.99;25.42;98762.13;7023855;28;20640;-77
2022/03/12 16:00:28;;;;;;;12.13;10.00;;;;;;;19.36;25.58;98803.22;7023788;28;20210;-77